Latest Weather Observations for Stenhouse Bay

IDS60801

Issued at 6:31 pm CDT Monday 23 October 2017 (issued every 30 minutes, with the page automatically refreshed every 10 minutes)

About weather observations | Map of weather stations | Latest weather observations for SA | Other Formats
Station Details ID: 022049 Name: STENHOUSE BAY Lat: -35.28 Lon: 136.94 Height: 42.0 m
Data from the previous 72 hours. | See also: Recent months at Stenhouse Bay
Date/Time
CDT
Temp
°C
App
Temp
°C
Dew
Point
°C
Rel
Hum
%
Delta-T
°C
Wind Press
QNH
hPa
Press
MSL
hPa
Rain since
9am
mm
Dir  Spd
km/h
Gust
km/h
Spd
kts
Gust
kts
23/06:30pm 15.5 13.3 10.7 73 2.5 SE 13 15 7 8 1015.9 1015.8 0.0
23/06:00pm 15.6 13.7 10.6 72 2.6 SE 11 15 6 8 1016.2 1016.1 0.0
23/05:30pm 17.0 14.9 11.1 68 3.2 SSE 13 17 7 9 1016.4 1016.3 0.0
23/05:00pm 16.7 14.2 11.0 69 3.1 ESE 15 19 8 10 1016.2 1016.1 0.0
23/04:30pm 16.9 14.8 11.0 68 3.2 E 13 17 7 9 1016.0 1015.9 0.0
23/04:00pm 17.0 14.8 10.8 67 3.3 E 13 19 7 10 1016.2 1016.1 0.0
23/03:30pm 17.1 15.1 11.6 70 3.0 E 13 19 7 10 1016.5 1016.4 0.0
23/03:00pm 16.1 13.0 10.2 68 3.1 E 17 20 9 11 1016.4 1016.3 0.0
23/02:30pm 16.6 14.2 10.2 66 3.4 ESE 13 20 7 11 1017.6 1017.5 0.0
23/02:00pm 17.2 15.0 10.8 66 3.4 SSE 13 17 7 9 1018.1 1018.1 0.0
23/01:30pm 16.9 14.8 11.0 68 3.2 SSE 13 15 7 8 1018.5 1018.5 0.0
23/01:00pm 16.1 14.2 10.4 69 3.0 SE 11 15 6 8 1018.5 1018.5 0.0
23/12:30pm 16.3 13.7 10.8 70 2.9 ESE 15 19 8 10 1018.6 1018.6 0.0
23/12:00pm 16.4 14.0 10.0 66 3.4 SE 13 17 7 9 1018.9 1018.9 0.0
23/11:30am 16.3 14.0 10.4 68 3.1 ESE 13 17 7 9 1019.1 1019.1 0.0
23/11:00am 15.3 13.3 10.3 72 2.6 E 11 15 6 8 1019.5 1019.5 0.0
23/10:30am 15.2 13.3 10.4 73 2.5 E 11 17 6 9 1019.5 1019.5 0.0
23/10:00am 14.5 12.8 9.9 74 2.4 NE 9 17 5 9 1019.7 1019.7 0.0
23/09:30am 14.5 12.5 10.1 75 2.3 E 11 15 6 8 1019.7 1019.7 0.0
23/09:00am 14.0 11.4 9.2 73 2.4 ENE 13 20 7 11 1019.6 1019.6 0.0
23/08:30am 13.6 11.7 9.1 74 2.3 ENE 9 17 5 9 1019.8 1019.8 0.0
23/08:00am 13.3 10.6 8.8 74 2.3 NE 13 19 7 10 1019.8 1019.8 0.0
23/07:30am 13.2 10.9 9.1 76 2.1 E 11 17 6 9 1019.6 1019.6 0.0
23/07:00am 12.9 10.6 9.0 77 2.0 E 11 15 6 8 1019.7 1019.7 0.0
23/06:30am 12.9 11.0 9.0 77 2.0 E 9 15 5 8 1019.4 1019.4 0.0
23/06:00am 12.9 10.2 8.8 76 2.1 E 13 19 7 10 1019.3 1019.3 0.0
23/05:30am 12.8 11.1 8.5 75 2.1 ESE 7 13 4 7 1019.3 1019.3 0.0
23/05:00am 12.8 10.8 8.5 75 2.1 E 9 15 5 8 1019.6 1019.6 0.0
23/04:30am 12.9 9.8 9.0 77 2.0 SE 15 19 8 10 1019.4 1019.4 0.0
23/04:00am 13.0 10.5 8.3 73 2.3 E 11 15 6 8 1019.5 1019.5 0.0
23/03:30am 12.9 10.4 8.0 72 2.4 ESE 11 15 6 8 1019.7 1019.7 0.0
23/03:00am 12.9 11.7 8.0 72 2.4 E 4 6 2 3 1020.2 1020.2 0.0
23/02:30am 13.0 11.2 8.1 72 2.4 E 7 15 4 8 1020.4 1020.4 0.0
23/02:00am 13.0 11.3 7.7 70 2.6 SE 6 15 3 8 1020.7 1020.7 0.0
23/01:30am 13.0 10.4 7.9 71 2.5 SSE 11 15 6 8 1021.0 1021.0 0.0
23/01:00am 13.2 10.3 8.1 71 2.5 SE 13 20 7 11 1021.5 1021.5 0.0
23/12:30am 13.3 9.7 8.4 72 2.4 SSE 17 22 9 12 1021.8 1021.8 0.0
23/12:00am 13.4 9.6 8.9 74 2.3 S 19 24 10 13 1021.9 1021.9 0.0
 
Date/Time
CDT
Temp
°C
App
Temp
°C
Dew
Point
°C
Rel
Hum
%
Delta-T
°C
Wind Press
QNH
hPa
Press
MSL
hPa
Rain since
9am
mm
Dir  Spd
km/h
Gust
km/h
Spd
kts
Gust
kts
22/11:30pm 13.6 9.6 9.1 74 2.3 SSE 20 26 11 14 1022.0 1022.0 0.0
22/11:00pm 13.7 9.4 9.2 74 2.3 SSE 22 26 12 14 1022.1 1022.1 0.0
22/10:30pm 13.9 9.6 9.3 74 2.3 SSE 22 28 12 15 1022.1 1022.1 0.0
22/10:00pm 14.1 9.8 9.3 73 2.5 SSE 22 28 12 15 1022.1 1022.1 0.0
22/09:30pm 14.3 10.7 9.9 75 2.3 S 19 26 10 14 1022.0 1022.0 0.0
22/09:00pm 14.1 10.9 9.9 76 2.2 S 17 22 9 12 1021.8 1021.8 0.0
22/08:30pm 13.6 11.6 10.0 79 1.9 SSW 11 17 6 9 1021.9 1021.9 0.0
22/08:00pm 13.6 11.7 10.4 81 1.7 SSW 11 17 6 9 1021.7 1021.7 0.0
22/07:30pm 13.9 11.1 10.1 78 2.0 S 15 20 8 11 1021.4 1021.4 0.0
22/07:00pm 14.6 11.5 10.2 75 2.3 SSW 17 20 9 11 1021.3 1021.3 0.0
22/06:30pm 15.1 12.3 9.9 71 2.7 SSW 15 20 8 11 1021.3 1021.3 0.0
22/06:00pm 15.1 12.4 10.3 73 2.5 SSW 15 20 8 11 1021.6 1021.6 0.0
22/05:30pm 14.9 12.1 10.1 73 2.5 SSW 15 22 8 12 1021.8 1021.8 0.0
22/05:00pm 15.0 11.4 10.0 72 2.6 SW 19 24 10 13 1022.1 1022.1 0.0
22/04:30pm 14.9 11.2 9.3 69 2.9 SW 19 24 10 13 1022.2 1022.2 0.0
22/04:00pm 15.4 11.8 9.7 69 3.0 SW 19 24 10 13 1022.3 1022.3 0.0
22/03:30pm 15.1 11.7 9.2 68 3.0 SW 17 26 9 14 1022.5 1022.5 0.0
22/03:00pm 15.6 14.4 9.5 67 3.1 S 6 7 3 4 1022.7 1022.7 0.0
22/02:30pm 15.5 13.7 9.6 68 3.1 SW 9 13 5 7 1022.9 1022.9 0.0
22/02:00pm 15.1 13.2 9.2 68 3.0 S 9 13 5 7 1023.1 1023.1 0.0
22/01:30pm 15.4 13.1 8.9 65 3.3 SSW 11 17 6 9 1023.2 1023.2 0.0
22/01:00pm 15.8 14.0 9.5 66 3.3 SSW 9 13 5 7 1023.4 1023.4 0.0
22/12:30pm 15.9 14.1 9.3 65 3.4 SSW 9 15 5 8 1023.7 1023.7 0.0
22/12:00pm 16.4 14.3 9.8 65 3.4 SSW 11 19 6 10 1023.9 1023.9 0.0
22/11:30am 15.2 12.9 8.9 66 3.2 SSW 11 19 6 10 1024.2 1024.2 0.0
22/11:00am 14.8 12.1 9.0 68 3.0 SSW 13 17 7 9 1024.2 1024.2 0.0
22/10:30am 14.4 11.1 9.6 73 2.5 S 17 20 9 11 1024.2 1024.2 0.0
22/10:00am 14.5 10.6 8.5 67 3.0 S 19 26 10 14 1024.3 1024.3 0.0
22/09:30am 13.9 9.3 8.1 68 2.9 S 22 28 12 15 1024.3 1024.3 0.0
22/09:00am 13.6 9.9 8.0 69 2.8 S 17 24 9 13 1024.2 1024.2 0.0
22/08:30am 13.2 9.2 8.1 71 2.5 SSW 19 26 10 14 1024.1 1024.1 0.0
22/08:00am 12.9 9.9 7.6 70 2.6 S 13 19 7 10 1024.1 1024.1 0.0
22/07:30am 12.5 7.5 8.2 75 2.1 SSE 24 30 13 16 1023.9 1023.9 0.0
22/07:00am 12.7 8.5 8.2 74 2.2 S 20 28 11 15 1023.7 1023.7 0.0
22/06:30am 12.6 8.0 8.3 75 2.1 S 22 30 12 16 1023.7 1023.7 0.0
22/06:00am 12.7 9.2 7.4 70 2.6 SSW 15 22 8 12 1023.7 1023.7 0.0
22/05:30am 12.6 8.3 6.9 68 2.7 S 19 24 10 13 1023.6 1023.6 0.0
22/05:00am 12.6 8.0 6.4 66 3.0 S 20 28 11 15 1023.7 1023.7 0.0
22/04:30am 12.5 7.4 5.9 64 3.1 SSE 22 28 12 15 1023.8 1023.8 0.0
22/04:00am 12.7 7.4 6.7 67 2.9 S 24 32 13 17 1023.9 1023.9 0.0
22/03:30am 12.5 7.4 6.1 65 3.0 SSE 22 33 12 18 1024.1 1024.1 0.0
22/03:00am 12.5 7.0 6.1 65 3.0 SSE 24 32 13 17 1024.4 1024.4 0.0
22/02:30am 12.5 7.5 6.3 66 2.9 SSE 22 32 12 17 1024.6 1024.6 0.0
22/02:00am 12.5 6.4 6.5 67 2.9 SSE 28 32 15 17 1024.9 1024.9 0.0
22/01:30am 12.7 7.7 6.3 65 3.0 S 22 32 12 17 1025.2 1025.2 0.0
22/01:00am 12.8 7.8 6.6 66 3.0 S 22 35 12 19 1025.6 1025.6 0.0
22/12:30am 12.6 7.3 6.9 68 2.7 S 24 32 13 17 1025.8 1025.8 0.0
22/12:00am 12.5 7.6 6.8 68 2.7 S 22 30 12 16 1026.2 1026.2 0.0
 
Date/Time
CDT
Temp
°C
App
Temp
°C
Dew
Point
°C
Rel
Hum
%
Delta-T
°C
Wind Press
QNH
hPa
Press
MSL
hPa
Rain since
9am
mm
Dir  Spd
km/h
Gust
km/h
Spd
kts
Gust
kts
21/11:30pm 12.9 7.4 6.0 63 3.2 S 24 35 13 19 1026.3 1026.3 0.0
21/11:00pm 12.8 7.1 6.6 66 3.0 S 26 33 14 18 1026.5 1026.5 0.0
21/10:30pm 12.8 6.9 5.7 62 3.3 S 26 35 14 19 1026.8 1026.8 0.0
21/10:00pm 12.9 7.2 6.5 65 3.1 SSE 26 35 14 19 1027.0 1027.0 0.0
21/09:30pm 12.7 6.4 5.8 63 3.2 S 28 35 15 19 1027.2 1027.2 0.0
21/09:00pm 13.0 6.7 5.9 62 3.3 S 28 35 15 19 1027.2 1027.2 0.0
21/08:30pm 13.0 6.9 6.8 66 3.0 SSE 28 39 15 21 1027.0 1027.0 0.0
21/08:00pm 13.3 7.4 5.9 61 3.5 S 26 35 14 19 1026.9 1026.9 0.0
21/07:30pm 13.3 7.8 5.9 61 3.5 S 24 33 13 18 1027.0 1027.0 0.0
21/07:00pm 13.7 8.7 6.6 62 3.4 S 22 32 12 17 1026.8 1026.8 0.0
21/06:30pm 14.0 8.3 6.6 61 3.6 S 26 35 14 19 1026.8 1026.8 0.0
21/06:00pm 14.4 9.6 7.5 63 3.4 SSW 22 35 12 19 1026.9 1026.9 0.0
21/05:30pm 14.8 9.4 8.1 64 3.3 SSW 26 37 14 20 1027.0 1027.0 0.0
21/05:00pm 15.1 10.2 8.3 64 3.4 SSW 24 39 13 21 1026.9 1026.9 0.0
21/04:30pm 15.2 9.8 8.0 62 3.6 SW 26 37 14 20 1027.1 1027.1 0.0
21/04:00pm 15.6 10.1 7.6 59 4.0 SW 26 35 14 19 1027.3 1027.3 0.0
21/03:30pm 16.3 11.7 8.3 59 4.0 SW 22 35 12 19 1027.7 1027.7 0.0
21/03:00pm 16.5 12.3 8.2 58 4.2 SW 20 28 11 15 1028.1 1028.1 0.0
21/02:30pm 16.3 12.8 7.3 55 4.5 SSW 15 19 8 10 1028.4 1028.4 0.0
21/02:00pm 16.3 13.4 8.3 59 4.1 SSW 13 20 7 11 1028.7 1028.7 0.0
21/01:30pm 16.1 13.7 6.8 54 4.5 SSW 9 13 5 7 1029.0 1029.0 0.0
21/01:00pm 15.4 12.9 6.4 55 4.4 SSW 9 13 5 7 1029.3 1029.3 0.0
21/12:30pm 15.5 12.2 6.2 54 4.5 S 13 15 7 8 1029.8 1029.8 0.0
21/12:00pm 15.1 11.9 6.7 57 4.1 S 13 19 7 10 1030.3 1030.2 0.0
21/11:30am 14.8 11.9 6.4 57 4.0 S 11 17 6 9 1030.5 1030.4 0.0
21/11:00am 14.7 10.9 5.8 55 4.3 SSE 15 22 8 12 1030.5 1030.4 0.0
21/10:30am 14.5 10.7 5.8 56 4.1 SSE 15 22 8 12 1030.8 1030.7 0.0
21/10:00am 13.6 9.0 5.5 58 3.8 SSE 19 24 10 13 1030.8 1030.7 0.0
21/09:30am 13.5 9.7 5.9 60 3.6 SSE 15 20 8 11 1030.7 1030.6 0.0
21/09:00am 13.1 9.0 6.2 63 3.3 SSE 17 24 9 13 1030.7 1030.6 0.0
21/08:30am 12.5 7.7 5.7 63 3.2 SSE 20 30 11 16 1030.9 1030.8 0.0
21/08:00am 12.2 7.4 5.6 64 3.1 SSE 20 28 11 15 1030.7 1030.6 0.0
21/07:30am 12.0 7.2 5.4 64 3.0 SSE 20 30 11 16 1030.7 1030.6 0.0
21/07:00am 12.0 7.2 5.6 65 3.0 SSE 20 26 11 14 1030.5 1030.4 0.0
21/06:30am 12.1 7.5 5.7 65 3.0 SSE 19 24 10 13 1030.3 1030.2 0.0
21/06:00am 11.9 6.7 5.3 64 3.0 SSE 22 30 12 16 1029.8 1029.8 0.0
21/05:30am 12.0 8.5 5.4 64 3.0 SE 13 24 7 13 1029.9 1029.9 0.0
21/05:00am 12.3 8.1 5.9 65 3.0 SSE 17 24 9 13 1029.9 1029.9 0.0
21/04:30am 12.0 7.6 5.0 62 3.2 SE 17 22 9 12 1030.3 1030.2 0.0
21/04:00am 12.0 7.7 5.2 63 3.1 SE 17 24 9 13 1030.4 1030.3 0.0
21/03:30am 11.9 7.2 5.3 64 3.0 SSE 19 28 10 15 1030.5 1030.4 0.0
21/03:00am 12.0 7.3 5.2 63 3.1 SE 19 28 10 15 1030.7 1030.6 0.0
21/02:30am 12.0 7.1 5.2 63 3.1 SE 20 28 11 15 1030.8 1030.7 0.0
21/02:00am 12.3 7.1 5.7 64 3.1 SE 22 32 12 17 1031.0 1030.9 0.0
21/01:30am 12.2 7.0 5.6 64 3.1 SE 22 32 12 17 1031.4 1031.3 0.0
21/01:00am 12.1 7.3 5.5 64 3.1 SE 20 28 11 15 1031.7 1031.6 0.0
21/12:30am 12.2 7.0 5.6 64 3.1 SE 22 33 12 18 1031.8 1031.7 0.0
21/12:00am 12.0 6.4 5.2 63 3.1 SE 24 35 13 19 1032.0 1031.9 0.0
 
Date/Time
CDT
Temp
°C
App
Temp
°C
Dew
Point
°C
Rel
Hum
%
Delta-T
°C
Wind Press
QNH
hPa
Press
MSL
hPa
Rain since
9am
mm
Dir  Spd
km/h
Gust
km/h
Spd
kts
Gust
kts
20/11:30pm 12.3 6.7 5.2 62 3.3 SE 24 33 13 18 1032.3 1032.2 0.0
20/11:00pm 12.3 6.7 5.2 62 3.3 SE 24 33 13 18 1032.4 1032.3 0.0
20/10:30pm 12.4 6.0 5.1 61 3.3 SSE 28 35 15 19 1032.6 1032.5 0.0
20/10:00pm 12.5 6.9 5.2 61 3.4 SE 24 33 13 18 1032.6 1032.5 0.0
20/09:30pm 12.7 6.4 5.8 63 3.2 SSE 28 35 15 19 1032.5 1032.4 0.0
20/09:00pm 12.8 6.0 5.2 60 3.5 SSE 30 37 16 20 1032.4 1032.3 0.0
20/08:30pm 13.1 7.0 5.0 58 3.7 SSE 26 35 14 19 1032.2 1032.1 0.0
20/08:00pm 13.3 6.1 5.0 57 3.9 SSE 32 39 17 21 1031.9 1031.8 0.0
20/07:30pm 13.7 6.6 5.3 57 3.9 SSE 32 39 17 21 1031.7 1031.6 0.0
20/07:00pm 14.2 6.8 5.0 54 4.3 SSE 33 41 18 22 1031.1 1031.0 0.0

Other Formats:

Comma delimited format used in spreadsheet applications
http://www.bom.gov.au/fwo/IDS60801/IDS60801.95806.axf

JavaScript Object Notation format (JSON) in row-major order
http://www.bom.gov.au/fwo/IDS60801/IDS60801.95806.json